createdAt,value
2018-07-30T00:01:25.340Z,25.30
2018-07-30T00:03:54.527Z,25.20
2018-07-30T00:06:23.785Z,24.90
2018-07-30T00:08:59.440Z,24.80
2018-07-30T00:11:28.633Z,24.80
2018-07-30T00:13:57.779Z,24.90
2018-07-30T00:16:27.142Z,24.80
2018-07-30T00:18:56.345Z,25.00
2018-07-30T00:21:25.573Z,25.10
2018-07-30T00:23:54.745Z,25.00
2018-07-30T00:26:23.953Z,24.90
2018-07-30T00:28:53.140Z,25.00
2018-07-30T00:31:22.335Z,24.90
2018-07-30T00:33:51.553Z,24.90
2018-07-30T00:36:20.740Z,24.70
2018-07-30T00:38:49.954Z,24.60
2018-07-30T00:41:19.140Z,24.50
2018-07-30T00:43:48.334Z,24.40
2018-07-30T00:46:17.542Z,24.40
2018-07-30T00:48:47.044Z,24.40
2018-07-30T00:51:16.192Z,24.40
2018-07-30T00:53:45.365Z,24.40
2018-07-30T00:56:14.542Z,24.30
2018-07-30T00:58:43.694Z,24.40
2018-07-30T01:01:12.878Z,24.30
2018-07-30T01:03:42.002Z,24.50
2018-07-30T01:06:11.180Z,24.60
2018-07-30T01:08:40.301Z,24.40
2018-07-30T01:11:09.552Z,24.40
2018-07-30T01:13:38.722Z,24.40
2018-07-30T01:16:07.902Z,24.40
2018-07-30T01:18:37.037Z,24.50
2018-07-30T01:21:06.289Z,24.40
2018-07-30T01:23:35.431Z,24.40
2018-07-30T01:26:09.989Z,24.50
2018-07-30T01:28:39.966Z,24.40
2018-07-30T01:31:09.224Z,24.40
2018-07-30T01:33:38.373Z,24.30
2018-07-30T01:36:07.572Z,24.40
2018-07-30T01:38:36.693Z,24.40
2018-07-30T01:41:05.960Z,24.30
2018-07-30T01:43:35.126Z,24.40
2018-07-30T01:46:05.111Z,24.30
2018-07-30T01:48:34.231Z,24.30
2018-07-30T01:51:04.482Z,24.20
2018-07-30T01:53:33.646Z,24.20
2018-07-30T01:56:02.821Z,24.20
2018-07-30T01:58:32.017Z,24.20
2018-07-30T02:01:01.205Z,24.10
2018-07-30T02:03:30.348Z,24.10
2018-07-30T02:05:59.510Z,24.10
2018-07-30T02:08:29.233Z,23.80
2018-07-30T02:10:58.427Z,23.80
2018-07-30T02:13:27.627Z,23.90
2018-07-30T02:15:56.822Z,23.90
2018-07-30T02:18:25.971Z,23.90
2018-07-30T02:20:55.127Z,23.70
2018-07-30T02:23:24.262Z,23.90
2018-07-30T02:25:53.495Z,24.00
2018-07-30T02:28:22.661Z,23.90
2018-07-30T02:30:51.871Z,23.80
2018-07-30T02:33:21.094Z,23.80
2018-07-30T02:35:50.276Z,23.90
2018-07-30T02:38:19.549Z,23.80
2018-07-30T02:40:48.709Z,23.80
2018-07-30T02:43:17.883Z,23.90
2018-07-30T02:45:47.214Z,23.60
2018-07-30T02:48:16.354Z,23.50
2018-07-30T02:50:45.605Z,23.50
2018-07-30T02:53:14.789Z,23.20
2018-07-30T02:55:43.983Z,23.10
2018-07-30T02:58:13.202Z,23.20
2018-07-30T03:00:42.386Z,23.40
2018-07-30T03:03:12.462Z,23.50
2018-07-30T03:05:42.474Z,23.40
2018-07-30T03:08:11.658Z,23.40
2018-07-30T03:10:40.840Z,23.40
2018-07-30T03:13:10.153Z,23.50
2018-07-30T03:18:07.968Z,23.50
2018-07-30T03:20:37.151Z,23.60
2018-07-30T03:23:06.388Z,23.60
2018-07-30T03:25:35.530Z,23.70
2018-07-30T03:28:04.736Z,23.40
2018-07-30T03:30:33.872Z,23.50
2018-07-30T03:33:03.067Z,23.50
2018-07-30T03:35:32.255Z,23.40
2018-07-30T03:38:01.469Z,23.50
2018-07-30T03:40:30.660Z,23.50
2018-07-30T03:42:59.798Z,23.50
2018-07-30T03:45:32.647Z,23.50
2018-07-30T03:48:01.832Z,23.50
2018-07-30T03:50:30.998Z,23.40
2018-07-30T03:53:00.172Z,23.20
2018-07-30T03:55:29.301Z,23.00
2018-07-30T03:57:58.595Z,23.00
2018-07-30T04:00:27.764Z,23.00
2018-07-30T04:02:56.891Z,23.10
2018-07-30T04:05:26.094Z,23.10
2018-07-30T04:10:23.946Z,23.30
2018-07-30T04:12:53.181Z,23.40
2018-07-30T04:15:22.331Z,23.40
2018-07-30T04:17:51.486Z,23.40
2018-07-30T04:20:20.605Z,23.40
2018-07-30T04:22:50.084Z,23.30
2018-07-30T04:25:19.274Z,23.30
2018-07-30T04:27:48.450Z,23.30
2018-07-30T04:30:17.722Z,23.30
2018-07-30T04:32:47.060Z,23.30
2018-07-30T04:35:16.986Z,23.30
2018-07-30T04:40:15.129Z,23.30
2018-07-30T04:42:44.378Z,23.30
2018-07-30T04:45:13.582Z,23.30
2018-07-30T04:47:42.769Z,23.20
2018-07-30T04:50:12.004Z,23.30
2018-07-30T04:55:10.174Z,23.30
2018-07-30T04:57:40.394Z,23.20
2018-07-30T05:00:09.682Z,23.10
2018-07-30T05:02:39.481Z,23.30
2018-07-30T05:05:08.689Z,23.20
2018-07-30T05:07:37.942Z,23.00
2018-07-30T05:10:07.063Z,22.90
2018-07-30T05:12:36.290Z,22.90
2018-07-30T05:15:05.493Z,23.10
2018-07-30T05:17:34.746Z,23.00
2018-07-30T05:20:04.136Z,23.20
2018-07-30T05:22:33.306Z,23.30
2018-07-30T05:25:02.520Z,23.30
2018-07-30T05:27:31.765Z,23.30
2018-07-30T05:30:00.949Z,23.30
2018-07-30T05:32:30.140Z,23.30
2018-07-30T05:34:59.352Z,23.20
2018-07-30T05:37:28.571Z,23.10
2018-07-30T05:39:57.734Z,23.10
2018-07-30T05:42:27.868Z,23.10
2018-07-30T05:44:57.018Z,23.00
2018-07-30T05:47:26.363Z,23.10
2018-07-30T05:49:55.544Z,23.10
2018-07-30T05:52:24.775Z,23.10
2018-07-30T05:54:53.991Z,23.10
2018-07-30T05:57:23.193Z,23.30
2018-07-30T05:59:52.463Z,23.40
2018-07-30T06:02:21.596Z,23.40
2018-07-30T06:04:50.795Z,23.40
2018-07-30T06:07:20.007Z,23.50
2018-07-30T06:09:49.153Z,23.50
2018-07-30T06:12:18.355Z,23.40
2018-07-30T06:17:16.291Z,23.50
2018-07-30T06:19:45.574Z,23.50
2018-07-30T06:22:14.719Z,23.60
2018-07-30T06:24:43.894Z,23.50
2018-07-30T06:27:13.102Z,23.50
2018-07-30T06:29:42.310Z,23.60
2018-07-30T06:32:11.808Z,23.70
2018-07-30T06:34:41.085Z,23.90
2018-07-30T06:37:10.327Z,24.20
2018-07-30T06:39:39.583Z,24.60
2018-07-30T06:42:08.781Z,24.80
2018-07-30T06:44:38.106Z,25.00
2018-07-30T06:47:07.465Z,25.50
2018-07-30T06:49:36.606Z,25.90
2018-07-30T06:52:06.493Z,26.30
2018-07-30T06:54:35.785Z,26.60
2018-07-30T06:59:34.011Z,27.70
2018-07-30T07:02:06.035Z,28.30
2018-07-30T07:04:37.034Z,28.40
2018-07-30T07:07:06.314Z,28.80
2018-07-30T07:09:36.302Z,29.70
2018-07-30T07:12:05.543Z,30.10
2018-07-30T07:14:34.743Z,30.70
2018-07-30T07:17:03.993Z,30.70
2018-07-30T07:19:33.146Z,31.10
2018-07-30T07:22:02.476Z,31.30
2018-07-30T07:24:31.680Z,31.70
2018-07-30T07:27:00.857Z,31.80
2018-07-30T07:29:30.061Z,31.60
2018-07-30T07:31:59.264Z,31.80
2018-07-30T07:34:28.475Z,32.30
2018-07-30T07:36:57.652Z,32.90
2018-07-30T07:39:26.806Z,32.90
2018-07-30T07:41:56.007Z,33.40
2018-07-30T07:44:26.225Z,33.30
2018-07-30T07:46:55.369Z,34.20
2018-07-30T07:49:24.673Z,34.70
2018-07-30T07:51:54.966Z,35.70
2018-07-30T07:54:25.747Z,36.30
2018-07-30T07:56:55.770Z,36.40
2018-07-30T07:59:24.984Z,36.90
2018-07-30T08:01:54.503Z,37.10
2018-07-30T08:04:23.646Z,36.60
2018-07-30T08:06:59.263Z,37.30
2018-07-30T08:09:28.476Z,37.30
2018-07-30T08:11:57.723Z,37.70
2018-07-30T08:14:27.092Z,38.30
2018-07-30T08:16:56.434Z,38.60
2018-07-30T08:19:25.590Z,39.00
2018-07-30T08:21:55.008Z,39.70
2018-07-30T08:24:24.225Z,39.40
2018-07-30T08:26:53.480Z,39.50
2018-07-30T08:31:51.644Z,39.60
2018-07-30T08:34:20.898Z,39.50
2018-07-30T08:36:50.340Z,39.40
2018-07-30T08:39:19.612Z,39.40
2018-07-30T08:41:48.810Z,39.30
2018-07-30T08:44:18.075Z,39.00
2018-07-30T08:46:47.291Z,38.90
2018-07-30T08:49:16.516Z,38.90
2018-07-30T08:51:45.773Z,38.00
2018-07-30T08:54:15.690Z,37.60
2018-07-30T08:56:45.204Z,37.10
2018-07-30T08:59:14.806Z,37.10
2018-07-30T09:01:45.059Z,36.90
2018-07-30T09:04:14.221Z,36.10
2018-07-30T09:06:44.045Z,35.30
2018-07-30T09:09:13.338Z,34.20
2018-07-30T09:11:43.360Z,33.00
2018-07-30T09:14:13.535Z,32.20
2018-07-30T09:16:42.875Z,32.00
2018-07-30T09:19:12.057Z,31.90
2018-07-30T09:21:41.669Z,31.60
2018-07-30T09:24:10.967Z,31.30
2018-07-30T09:26:40.113Z,31.10
2018-07-30T09:29:09.478Z,31.00
2018-07-30T09:31:38.886Z,30.90
2018-07-30T09:34:09.102Z,30.90
2018-07-30T09:36:38.844Z,30.90
2018-07-30T09:39:10.761Z,30.90
2018-07-30T09:41:41.650Z,30.90
2018-07-30T09:44:10.938Z,31.00
2018-07-30T09:46:41.022Z,31.10
2018-07-30T09:49:10.880Z,31.10
2018-07-30T09:51:41.077Z,31.20
2018-07-30T09:54:11.118Z,31.20
2018-07-30T09:56:41.206Z,31.20
2018-07-30T09:59:11.496Z,31.00
2018-07-30T10:01:40.835Z,31.20
2018-07-30T10:04:10.034Z,31.20
2018-07-30T10:06:41.348Z,31.30
2018-07-30T10:09:11.500Z,31.30
2018-07-30T10:14:11.396Z,31.20
2018-07-30T10:16:42.436Z,31.60
2018-07-30T10:19:12.715Z,32.00
2018-07-30T10:21:42.002Z,31.90
2018-07-30T10:24:11.386Z,31.60
2018-07-30T10:26:40.854Z,31.30
2018-07-30T10:29:10.427Z,31.20
2018-07-30T10:31:39.845Z,31.10
2018-07-30T10:34:11.084Z,31.00
2018-07-30T10:36:40.628Z,31.10
2018-07-30T10:39:09.978Z,31.20
2018-07-30T10:41:39.461Z,31.20
2018-07-30T10:44:09.387Z,31.30
2018-07-30T10:46:38.749Z,31.30
2018-07-30T10:49:09.439Z,31.40
2018-07-30T10:51:39.881Z,31.70
2018-07-30T10:54:09.226Z,31.50
2018-07-30T10:56:38.389Z,31.60
2018-07-30T10:59:07.721Z,31.60
2018-07-30T11:01:37.049Z,31.60
2018-07-30T11:04:06.275Z,31.70
2018-07-30T11:06:35.820Z,31.80
2018-07-30T11:09:08.258Z,31.80
2018-07-30T11:11:37.634Z,31.70
2018-07-30T11:14:06.926Z,31.70
2018-07-30T11:16:36.194Z,31.60
2018-07-30T11:19:06.589Z,31.60
2018-07-30T11:21:35.830Z,31.50
2018-07-30T11:24:07.137Z,31.60
2018-07-30T11:26:36.727Z,31.60
2018-07-30T11:29:06.184Z,31.60
2018-07-30T11:31:35.669Z,31.50
2018-07-30T11:34:05.677Z,31.60
2018-07-30T11:36:35.684Z,31.50
2018-07-30T11:39:08.573Z,31.40
2018-07-30T11:41:38.722Z,31.40
2018-07-30T11:44:09.283Z,31.50
2018-07-30T11:46:39.030Z,31.60
2018-07-30T11:49:08.445Z,31.50
2018-07-30T11:51:37.704Z,31.60
2018-07-30T11:54:07.000Z,31.60
2018-07-30T11:56:36.178Z,31.80
2018-07-30T11:59:05.410Z,31.80
2018-07-30T12:01:34.576Z,31.80
2018-07-30T12:04:03.933Z,31.70
2018-07-30T12:06:33.268Z,31.80
2018-07-30T12:09:02.541Z,31.90
2018-07-30T12:11:31.982Z,31.90
2018-07-30T12:14:01.262Z,31.90
2018-07-30T12:16:30.645Z,31.90
2018-07-30T12:19:00.044Z,31.80
2018-07-30T12:21:29.352Z,31.90
2018-07-30T12:23:58.786Z,31.90
2018-07-30T12:26:28.099Z,32.10
2018-07-30T12:28:57.424Z,32.30
2018-07-30T12:31:26.664Z,32.40
2018-07-30T12:33:55.954Z,32.50
2018-07-30T12:36:25.161Z,32.60
2018-07-30T12:38:54.439Z,32.50
2018-07-30T12:41:23.655Z,32.70
2018-07-30T12:43:52.826Z,32.60
2018-07-30T12:46:22.087Z,32.60
2018-07-30T12:48:51.329Z,32.60
2018-07-30T12:51:20.583Z,32.50
2018-07-30T12:53:49.808Z,32.60
2018-07-30T12:56:19.126Z,32.40
2018-07-30T12:58:48.437Z,32.50
2018-07-30T13:01:17.697Z,32.50
2018-07-30T13:03:47.062Z,32.50
2018-07-30T13:06:16.270Z,32.70
2018-07-30T13:08:45.826Z,32.60
2018-07-30T13:11:15.141Z,32.70
2018-07-30T13:13:44.463Z,32.70
2018-07-30T13:16:13.693Z,32.70
2018-07-30T13:18:42.886Z,32.60
2018-07-30T13:21:12.047Z,32.70
2018-07-30T13:23:41.366Z,32.70
2018-07-30T13:26:10.549Z,32.50
2018-07-30T13:28:39.894Z,32.50
2018-07-30T13:31:09.133Z,32.30
2018-07-30T13:33:38.416Z,32.20
2018-07-30T13:36:07.646Z,32.10
2018-07-30T13:38:36.881Z,32.10
2018-07-30T13:41:06.844Z,32.30
2018-07-30T13:43:36.125Z,32.30
2018-07-30T13:46:05.510Z,32.20
2018-07-30T13:48:34.869Z,32.10
2018-07-30T13:51:04.121Z,32.00
2018-07-30T13:53:33.282Z,31.80
2018-07-30T13:56:03.396Z,31.80
2018-07-30T13:58:32.599Z,31.90
2018-07-30T14:01:01.875Z,32.00
2018-07-30T14:03:31.122Z,32.00
2018-07-30T14:06:00.396Z,32.20
2018-07-30T14:08:29.587Z,32.30
2018-07-30T14:10:58.875Z,32.50
2018-07-30T14:13:28.070Z,32.60
2018-07-30T14:15:57.389Z,32.50
2018-07-30T14:18:26.658Z,32.50
2018-07-30T14:20:56.138Z,32.30
2018-07-30T14:23:25.365Z,32.50
2018-07-30T14:25:54.556Z,32.50
2018-07-30T14:28:23.921Z,32.50
2018-07-30T14:30:54.257Z,32.50
2018-07-30T14:33:23.578Z,32.40
2018-07-30T14:35:52.982Z,32.30
2018-07-30T14:38:22.214Z,32.20
2018-07-30T14:40:51.558Z,32.20
2018-07-30T14:43:20.810Z,32.10
2018-07-30T14:45:50.083Z,32.10
2018-07-30T14:48:19.281Z,32.00
2018-07-30T14:50:48.514Z,31.90
2018-07-30T14:53:18.466Z,31.90
2018-07-30T14:55:47.681Z,31.90
2018-07-30T14:58:16.943Z,32.00
2018-07-30T15:00:46.310Z,31.80
2018-07-30T15:03:15.496Z,31.90
2018-07-30T15:05:44.683Z,31.90
2018-07-30T15:08:13.905Z,32.00
2018-07-30T15:10:43.123Z,32.10
2018-07-30T15:13:12.330Z,32.00
2018-07-30T15:15:41.640Z,32.10
2018-07-30T15:18:10.874Z,32.20
2018-07-30T15:20:40.040Z,32.00
2018-07-30T15:23:09.275Z,32.10
2018-07-30T15:25:38.502Z,32.10
2018-07-30T15:28:07.771Z,32.20
2018-07-30T15:30:37.016Z,32.00
2018-07-30T15:33:06.321Z,32.10
2018-07-30T15:35:35.511Z,32.10
2018-07-30T15:38:04.708Z,32.00
2018-07-30T15:40:34.428Z,31.80
2018-07-30T15:43:03.671Z,31.70
2018-07-30T15:48:01.593Z,31.70
2018-07-30T15:50:31.108Z,31.70
2018-07-30T15:53:00.309Z,31.80
2018-07-30T15:55:29.537Z,31.70
2018-07-30T15:57:58.825Z,31.70
2018-07-30T16:00:28.155Z,31.70
2018-07-30T16:02:58.239Z,31.70
2018-07-30T16:05:28.627Z,31.60
2018-07-30T16:07:57.849Z,31.70
2018-07-30T16:10:27.068Z,31.80
2018-07-30T16:12:56.338Z,31.90
2018-07-30T16:15:25.887Z,31.90
2018-07-30T16:17:55.151Z,31.90
2018-07-30T16:20:24.463Z,31.80
2018-07-30T16:22:53.694Z,31.80
2018-07-30T16:25:22.899Z,31.90
2018-07-30T16:27:52.170Z,32.00
2018-07-30T16:30:21.493Z,32.10
2018-07-30T16:32:50.806Z,32.20
2018-07-30T16:35:20.405Z,32.30
2018-07-30T16:37:49.598Z,32.30
2018-07-30T16:40:18.815Z,32.30
2018-07-30T16:42:48.193Z,32.30
2018-07-30T16:45:17.507Z,32.30
2018-07-30T16:47:46.693Z,32.20
2018-07-30T16:50:15.973Z,32.10
2018-07-30T16:52:45.173Z,32.10
2018-07-30T16:55:16.460Z,32.10
2018-07-30T16:57:45.654Z,32.10
2018-07-30T17:00:14.877Z,32.10
2018-07-30T17:02:44.104Z,32.10
2018-07-30T17:05:13.440Z,31.90
2018-07-30T17:07:42.706Z,31.90
2018-07-30T17:10:12.042Z,32.00
2018-07-30T17:12:41.257Z,31.90
2018-07-30T17:15:10.534Z,31.90
2018-07-30T17:17:46.027Z,31.80
2018-07-30T17:20:15.224Z,31.90
2018-07-30T17:22:44.406Z,31.80
2018-07-30T17:25:13.688Z,31.80
2018-07-30T17:30:11.948Z,31.80
2018-07-30T17:32:41.356Z,31.80
2018-07-30T17:35:10.569Z,31.70
2018-07-30T17:37:40.033Z,31.70
2018-07-30T17:40:10.075Z,31.60
2018-07-30T17:42:39.705Z,31.70
2018-07-30T17:45:12.242Z,31.70
2018-07-30T17:47:41.954Z,31.70
2018-07-30T17:50:11.528Z,31.80
2018-07-30T17:52:41.494Z,31.70
2018-07-30T17:55:11.028Z,31.70
2018-07-30T17:57:40.658Z,31.70
2018-07-30T18:00:10.739Z,31.70
2018-07-30T18:02:40.092Z,31.50
2018-07-30T18:05:09.378Z,31.50
2018-07-30T18:07:38.639Z,31.40
2018-07-30T18:12:36.699Z,31.40
2018-07-30T18:15:06.072Z,31.30
2018-07-30T18:17:35.246Z,31.20
2018-07-30T18:20:07.957Z,31.20
2018-07-30T18:22:37.145Z,31.10
2018-07-30T18:25:07.325Z,31.00
2018-07-30T18:27:36.642Z,30.90
2018-07-30T18:30:07.293Z,30.90
2018-07-30T18:32:36.528Z,30.80
2018-07-30T18:35:05.845Z,30.70
2018-07-30T18:37:35.022Z,30.70
2018-07-30T18:40:05.005Z,30.70
2018-07-30T18:42:34.544Z,30.70
2018-07-30T18:45:04.010Z,30.60
2018-07-30T18:47:33.539Z,30.50
2018-07-30T18:50:03.150Z,30.50
2018-07-30T18:52:32.716Z,30.50
2018-07-30T18:55:02.150Z,30.40
2018-07-30T18:57:31.716Z,30.30
2018-07-30T19:00:00.993Z,30.30
2018-07-30T19:02:30.392Z,30.20
2018-07-30T19:05:00.088Z,30.20
2018-07-30T19:07:29.459Z,30.10
2018-07-30T19:09:58.829Z,30.00
2018-07-30T19:12:28.005Z,29.20
2018-07-30T19:14:57.480Z,28.60
2018-07-30T19:17:27.019Z,27.80
2018-07-30T19:19:56.661Z,27.40
2018-07-30T19:22:26.134Z,27.40
2018-07-30T19:24:55.342Z,27.30
2018-07-30T19:27:24.481Z,27.30
2018-07-30T19:29:53.694Z,27.40
2018-07-30T19:32:22.881Z,27.40
2018-07-30T19:34:52.117Z,27.30
2018-07-30T19:37:22.186Z,27.50
2018-07-30T19:39:51.891Z,27.60
2018-07-30T19:42:21.243Z,27.70
2018-07-30T19:44:50.473Z,27.90
2018-07-30T19:47:20.076Z,28.20
2018-07-30T19:49:49.627Z,28.30
2018-07-30T19:52:19.143Z,28.30
2018-07-30T19:54:48.590Z,28.50
2018-07-30T19:57:18.228Z,28.40
2018-07-30T19:59:47.760Z,28.50
2018-07-30T20:02:17.284Z,28.50
2018-07-30T20:04:46.692Z,28.50
2018-07-30T20:07:16.195Z,28.50
2018-07-30T20:09:45.319Z,28.50
2018-07-30T20:12:15.334Z,28.50
2018-07-30T20:14:44.463Z,28.50
2018-07-30T20:17:13.939Z,28.40
2018-07-30T20:19:43.131Z,28.40
2018-07-30T20:22:12.523Z,28.50
2018-07-30T20:24:41.799Z,28.40
2018-07-30T20:27:11.285Z,28.40
2018-07-30T20:29:41.061Z,28.40
2018-07-30T20:32:10.296Z,28.30
2018-07-30T20:34:39.497Z,28.30
2018-07-30T20:37:08.833Z,28.30
2018-07-30T20:39:37.900Z,28.30
2018-07-30T20:42:07.180Z,28.30
2018-07-30T20:44:36.417Z,28.20
2018-07-30T20:47:05.968Z,28.20
2018-07-30T20:49:35.131Z,28.20
2018-07-30T20:52:04.401Z,28.20
2018-07-30T20:54:33.624Z,28.20
2018-07-30T20:57:02.802Z,28.20
2018-07-30T20:59:31.953Z,28.10
2018-07-30T21:02:01.147Z,28.00
2018-07-30T21:04:30.407Z,28.00
2018-07-30T21:06:59.622Z,28.00
2018-07-30T21:09:28.803Z,27.90
2018-07-30T21:11:58.031Z,27.90
2018-07-30T21:14:27.356Z,27.90
2018-07-30T21:16:56.528Z,27.80
2018-07-30T21:19:25.731Z,27.80
2018-07-30T21:21:54.938Z,27.80
2018-07-30T21:24:24.115Z,27.80
2018-07-30T21:26:53.325Z,27.80
2018-07-30T21:29:22.453Z,27.70
2018-07-30T21:31:51.638Z,27.60
2018-07-30T21:34:20.863Z,27.60
2018-07-30T21:36:50.023Z,27.60
2018-07-30T21:39:19.293Z,27.50
2018-07-30T21:41:48.483Z,27.60
2018-07-30T21:44:17.770Z,27.50
2018-07-30T21:46:46.944Z,27.50
2018-07-30T21:49:16.159Z,27.40
2018-07-30T21:51:45.559Z,27.40
2018-07-30T21:54:14.807Z,27.30
2018-07-30T21:56:44.012Z,27.30
2018-07-30T21:59:13.271Z,27.30
2018-07-30T22:01:42.654Z,27.20
2018-07-30T22:04:12.042Z,27.00
2018-07-30T22:06:41.523Z,27.00
2018-07-30T22:09:10.923Z,26.90
2018-07-30T22:11:40.145Z,27.00
2018-07-30T22:14:09.282Z,27.00
2018-07-30T22:16:38.502Z,27.00
2018-07-30T22:19:07.671Z,26.90
2018-07-30T22:21:36.982Z,26.90
2018-07-30T22:24:06.471Z,26.80
2018-07-30T22:26:35.728Z,26.90
2018-07-30T22:29:04.951Z,27.00
2018-07-30T22:31:34.214Z,27.00
2018-07-30T22:34:03.408Z,26.90
2018-07-30T22:36:32.581Z,26.80
2018-07-30T22:39:01.759Z,26.70
2018-07-30T22:41:31.093Z,26.60
2018-07-30T22:44:00.281Z,26.60
2018-07-30T22:46:29.452Z,26.60
2018-07-30T22:48:58.680Z,26.70
2018-07-30T22:51:27.967Z,26.70
2018-07-30T22:53:57.294Z,26.80
2018-07-30T22:56:26.492Z,26.60
2018-07-30T22:58:55.710Z,26.40
2018-07-30T23:01:24.984Z,26.50
2018-07-30T23:03:54.166Z,26.30
2018-07-30T23:06:23.944Z,26.40
2018-07-30T23:08:53.152Z,26.50
2018-07-30T23:11:22.341Z,26.60
2018-07-30T23:13:51.606Z,26.50
2018-07-30T23:16:20.815Z,26.30
2018-07-30T23:18:50.336Z,26.40
2018-07-30T23:21:19.501Z,26.40
2018-07-30T23:23:48.948Z,26.10
2018-07-30T23:26:18.461Z,26.10
2018-07-30T23:28:47.818Z,26.10
2018-07-30T23:31:17.124Z,26.00
2018-07-30T23:33:46.488Z,25.90
2018-07-30T23:36:15.649Z,25.80
2018-07-30T23:38:44.989Z,25.80
2018-07-30T23:41:14.270Z,25.60
2018-07-30T23:43:43.504Z,25.50
2018-07-30T23:46:13.719Z,25.40
2018-07-30T23:48:42.910Z,25.50
2018-07-30T23:51:12.261Z,25.40
2018-07-30T23:53:41.837Z,25.40
2018-07-30T23:56:11.145Z,25.60
2018-07-30T23:58:41.411Z,25.60
